sensor_id;sensor_type;location;lat;lon;timestamp;pressure;altitude;pressure_sealevel;temperature;humidity
79362;BME280;68830;47.566;19.012;2023-04-08T00:01:50;100151.00;;;5.28;77.50
79362;BME280;68830;47.566;19.012;2023-04-08T00:04:55;100141.38;;;5.53;76.80
79362;BME280;68830;47.566;19.012;2023-04-08T00:07:58;100126.66;;;5.50;76.09
79362;BME280;68830;47.566;19.012;2023-04-08T00:11:00;100095.81;;;5.17;76.52
79362;BME280;68830;47.566;19.012;2023-04-08T00:14:02;100127.03;;;5.33;76.58
79362;BME280;68830;47.566;19.012;2023-04-08T00:17:06;100139.47;;;5.55;76.16
79362;BME280;68830;47.566;19.012;2023-04-08T00:20:09;100128.44;;;5.50;75.85
79362;BME280;68830;47.566;19.012;2023-04-08T00:23:11;100110.84;;;5.15;76.38
79362;BME280;68830;47.566;19.012;2023-04-08T00:26:13;100155.66;;;5.49;76.81
79362;BME280;68830;47.566;19.012;2023-04-08T00:29:15;100107.50;;;5.37;75.78
79362;BME280;68830;47.566;19.012;2023-04-08T00:32:18;100122.31;;;5.38;76.40
79362;BME280;68830;47.566;19.012;2023-04-08T00:35:20;100156.94;;;5.43;77.68
79362;BME280;68830;47.566;19.012;2023-04-08T00:38:23;100109.84;;;5.29;77.56
79362;BME280;68830;47.566;19.012;2023-04-08T00:41:25;100097.56;;;5.29;76.41
79362;BME280;68830;47.566;19.012;2023-04-08T00:44:27;100161.16;;;5.69;76.40
79362;BME280;68830;47.566;19.012;2023-04-08T00:47:30;100104.13;;;5.11;77.21
79362;BME280;68830;47.566;19.012;2023-04-08T00:50:32;100123.91;;;5.28;77.43
79362;BME280;68830;47.566;19.012;2023-04-08T00:53:34;100105.19;;;5.32;76.66
79362;BME280;68830;47.566;19.012;2023-04-08T00:56:36;100167.28;;;5.81;76.14
79362;BME280;68830;47.566;19.012;2023-04-08T00:59:39;100122.22;;;5.51;75.91
79362;BME280;68830;47.566;19.012;2023-04-08T01:02:49;100164.44;;;5.84;76.02
79362;BME280;68830;47.566;19.012;2023-04-08T01:05:57;100134.16;;;5.67;76.31
79362;BME280;68830;47.566;19.012;2023-04-08T01:09:03;100137.94;;;5.63;76.65
79362;BME280;68830;47.566;19.012;2023-04-08T01:12:07;100104.91;;;5.48;76.45
79362;BME280;68830;47.566;19.012;2023-04-08T01:15:11;100143.97;;;5.77;76.63
79362;BME280;68830;47.566;19.012;2023-04-08T01:18:15;100167.97;;;5.96;76.00
79362;BME280;68830;47.566;19.012;2023-04-08T01:21:19;100157.38;;;5.97;76.47
79362;BME280;68830;47.566;19.012;2023-04-08T01:24:29;100136.81;;;5.79;76.42
79362;BME280;68830;47.566;19.012;2023-04-08T01:27:33;100163.53;;;5.96;75.70
79362;BME280;68830;47.566;19.012;2023-04-08T01:30:37;100106.88;;;5.57;76.78
79362;BME280;68830;47.566;19.012;2023-04-08T01:33:40;100144.59;;;5.80;76.89
79362;BME280;68830;47.566;19.012;2023-04-08T01:36:44;100113.81;;;5.58;76.45
79362;BME280;68830;47.566;19.012;2023-04-08T01:39:47;100100.91;;;5.55;76.11
79362;BME280;68830;47.566;19.012;2023-04-08T01:42:54;100157.06;;;5.89;76.46
79362;BME280;68830;47.566;19.012;2023-04-08T01:45:57;100099.72;;;5.59;76.42
79362;BME280;68830;47.566;19.012;2023-04-08T01:49:01;100146.06;;;5.84;76.22
79362;BME280;68830;47.566;19.012;2023-04-08T01:52:04;100157.47;;;5.96;76.30
79362;BME280;68830;47.566;19.012;2023-04-08T01:55:07;100109.03;;;5.63;75.86
79362;BME280;68830;47.566;19.012;2023-04-08T01:58:16;100125.94;;;5.72;75.74
79362;BME280;68830;47.566;19.012;2023-04-08T02:01:21;100126.66;;;5.74;75.78
79362;BME280;68830;47.566;19.012;2023-04-08T02:04:24;100161.38;;;5.90;76.13
79362;BME280;68830;47.566;19.012;2023-04-08T02:07:26;100145.94;;;5.86;76.18
79362;BME280;68830;47.566;19.012;2023-04-08T02:10:28;100156.44;;;5.86;76.42
79362;BME280;68830;47.566;19.012;2023-04-08T02:13:32;100117.38;;;5.57;76.73
79362;BME280;68830;47.566;19.012;2023-04-08T02:16:39;100145.78;;;5.76;76.06
79362;BME280;68830;47.566;19.012;2023-04-08T02:19:46;100122.28;;;5.62;76.17
79362;BME280;68830;47.566;19.012;2023-04-08T02:22:55;100158.47;;;5.82;76.38
79362;BME280;68830;47.566;19.012;2023-04-08T02:26:01;100128.28;;;5.64;75.49
79362;BME280;68830;47.566;19.012;2023-04-08T02:29:11;100145.53;;;5.79;75.86
79362;BME280;68830;47.566;19.012;2023-04-08T02:32:13;100093.56;;;5.48;75.59
79362;BME280;68830;47.566;19.012;2023-04-08T02:35:17;100111.13;;;5.47;76.81
79362;BME280;68830;47.566;19.012;2023-04-08T02:38:19;100094.28;;;5.38;76.18
79362;BME280;68830;47.566;19.012;2023-04-08T02:41:22;100163.31;;;5.76;76.75
79362;BME280;68830;47.566;19.012;2023-04-08T02:44:25;100123.13;;;5.62;76.23
79362;BME280;68830;47.566;19.012;2023-04-08T02:47:27;100141.22;;;5.67;75.98
79362;BME280;68830;47.566;19.012;2023-04-08T02:50:29;100106.72;;;5.48;75.67
79362;BME280;68830;47.566;19.012;2023-04-08T02:53:31;100137.72;;;5.66;75.56
79362;BME280;68830;47.566;19.012;2023-04-08T02:56:34;100149.34;;;5.75;76.69
79362;BME280;68830;47.566;19.012;2023-04-08T02:59:37;100094.09;;;5.29;75.61
79362;BME280;68830;47.566;19.012;2023-04-08T03:02:41;100155.50;;;5.63;76.35
79362;BME280;68830;47.566;19.012;2023-04-08T03:05:43;100139.59;;;5.53;76.38
79362;BME280;68830;47.566;19.012;2023-04-08T03:08:46;100122.69;;;5.45;76.31
79362;BME280;68830;47.566;19.012;2023-04-08T03:11:48;100091.09;;;5.22;76.41
79362;BME280;68830;47.566;19.012;2023-04-08T03:14:55;100107.44;;;5.26;76.04
79362;BME280;68830;47.566;19.012;2023-04-08T03:17:57;100154.88;;;5.59;75.98
79362;BME280;68830;47.566;19.012;2023-04-08T03:20:59;100133.44;;;5.42;76.41
79362;BME280;68830;47.566;19.012;2023-04-08T03:24:02;100117.22;;;5.24;76.38
79362;BME280;68830;47.566;19.012;2023-04-08T03:27:04;100171.25;;;5.63;76.19
79362;BME280;68830;47.566;19.012;2023-04-08T03:30:08;100160.13;;;5.59;76.84
79362;BME280;68830;47.566;19.012;2023-04-08T03:33:11;100164.94;;;5.65;76.89
79362;BME280;68830;47.566;19.012;2023-04-08T03:36:13;100175.38;;;5.67;76.50
79362;BME280;68830;47.566;19.012;2023-04-08T03:39:16;100175.50;;;5.77;76.15
79362;BME280;68830;47.566;19.012;2023-04-08T03:42:18;100124.81;;;5.39;75.75
79362;BME280;68830;47.566;19.012;2023-04-08T03:45:22;100181.53;;;5.66;76.12
79362;BME280;68830;47.566;19.012;2023-04-08T03:48:24;100170.03;;;5.56;75.62
79362;BME280;68830;47.566;19.012;2023-04-08T03:51:26;100162.78;;;5.59;75.64
79362;BME280;68830;47.566;19.012;2023-04-08T03:54:29;100153.75;;;5.51;76.37
79362;BME280;68830;47.566;19.012;2023-04-08T03:57:31;100119.97;;;5.22;77.17
79362;BME280;68830;47.566;19.012;2023-04-08T04:00:35;100162.94;;;5.45;76.04
79362;BME280;68830;47.566;19.012;2023-04-08T04:03:38;100194.59;;;5.67;76.31
79362;BME280;68830;47.566;19.012;2023-04-08T04:06:43;100128.44;;;5.26;76.26
79362;BME280;68830;47.566;19.012;2023-04-08T04:09:48;100154.09;;;5.46;75.90
79362;BME280;68830;47.566;19.012;2023-04-08T04:12:50;100162.44;;;5.40;75.42
79362;BME280;68830;47.566;19.012;2023-04-08T04:15:53;100148.78;;;5.35;75.85
79362;BME280;68830;47.566;19.012;2023-04-08T04:18:55;100193.34;;;5.60;76.20
79362;BME280;68830;47.566;19.012;2023-04-08T04:21:58;100205.28;;;5.64;75.51
79362;BME280;68830;47.566;19.012;2023-04-08T04:25:00;100188.13;;;5.48;75.50
79362;BME280;68830;47.566;19.012;2023-04-08T04:28:02;100216.75;;;5.63;76.91
79362;BME280;68830;47.566;19.012;2023-04-08T04:31:06;100197.78;;;5.47;76.17
79362;BME280;68830;47.566;19.012;2023-04-08T04:34:08;100216.38;;;5.57;75.91
79362;BME280;68830;47.566;19.012;2023-04-08T04:37:10;100163.31;;;5.28;76.20
79362;BME280;68830;47.566;19.012;2023-04-08T04:40:12;100205.38;;;5.52;76.16
79362;BME280;68830;47.566;19.012;2023-04-08T04:43:14;100194.84;;;5.52;76.22
79362;BME280;68830;47.566;19.012;2023-04-08T04:46:18;100167.91;;;5.37;75.23
79362;BME280;68830;47.566;19.012;2023-04-08T04:49:20;100168.44;;;5.29;75.52
79362;BME280;68830;47.566;19.012;2023-04-08T04:52:22;100174.41;;;5.31;76.79
79362;BME280;68830;47.566;19.012;2023-04-08T04:55:24;100199.06;;;5.54;77.10
79362;BME280;68830;47.566;19.012;2023-04-08T04:58:27;100179.75;;;5.43;75.95
79362;BME280;68830;47.566;19.012;2023-04-08T05:01:30;100182.75;;;5.49;76.58
79362;BME280;68830;47.566;19.012;2023-04-08T05:04:33;100212.16;;;5.67;76.28
79362;BME280;68830;47.566;19.012;2023-04-08T05:07:35;100229.97;;;5.75;76.09
79362;BME280;68830;47.566;19.012;2023-04-08T05:10:39;100234.00;;;5.67;75.96
79362;BME280;68830;47.566;19.012;2023-04-08T05:13:41;100220.78;;;5.56;75.61
79362;BME280;68830;47.566;19.012;2023-04-08T05:16:45;100229.78;;;5.65;76.80
79362;BME280;68830;47.566;19.012;2023-04-08T05:19:47;100192.06;;;5.29;76.51
79362;BME280;68830;47.566;19.012;2023-04-08T05:22:49;100233.47;;;5.13;78.13
79362;BME280;68830;47.566;19.012;2023-04-08T05:25:51;100190.66;;;4.74;78.32
79362;BME280;68830;47.566;19.012;2023-04-08T05:29:07;100206.63;;;5.09;77.77
79362;BME280;68830;47.566;19.012;2023-04-08T05:32:10;100216.44;;;5.31;77.02
79362;BME280;68830;47.566;19.012;2023-04-08T05:35:13;100217.25;;;5.45;77.48
79362;BME280;68830;47.566;19.012;2023-04-08T05:38:15;100200.03;;;5.40;76.50
79362;BME280;68830;47.566;19.012;2023-04-08T05:41:21;100247.88;;;5.69;76.49
79362;BME280;68830;47.566;19.012;2023-04-08T05:44:23;100248.94;;;5.67;76.02
79362;BME280;68830;47.566;19.012;2023-04-08T05:47:26;100230.41;;;5.68;75.96
79362;BME280;68830;47.566;19.012;2023-04-08T05:50:28;100231.25;;;5.69;75.96
79362;BME280;68830;47.566;19.012;2023-04-08T05:53:31;100196.53;;;5.53;77.39
79362;BME280;68830;47.566;19.012;2023-04-08T05:56:35;100220.03;;;5.67;76.17
79362;BME280;68830;47.566;19.012;2023-04-08T05:59:38;100236.91;;;5.76;75.94
79362;BME280;68830;47.566;19.012;2023-04-08T06:02:42;100250.03;;;5.76;75.90
79362;BME280;68830;47.566;19.012;2023-04-08T06:05:45;100257.56;;;5.80;76.28
79362;BME280;68830;47.566;19.012;2023-04-08T06:08:47;100229.13;;;5.74;77.27
79362;BME280;68830;47.566;19.012;2023-04-08T06:11:49;100259.88;;;5.97;76.57
79362;BME280;68830;47.566;19.012;2023-04-08T06:14:53;100264.72;;;5.91;75.71
79362;BME280;68830;47.566;19.012;2023-04-08T06:17:58;100261.97;;;5.92;76.66
79362;BME280;68830;47.566;19.012;2023-04-08T06:21:00;100248.53;;;5.84;76.31
79362;BME280;68830;47.566;19.012;2023-04-08T06:24:02;100221.91;;;5.65;76.39
79362;BME280;68830;47.566;19.012;2023-04-08T06:27:04;100227.94;;;5.78;77.26
79362;BME280;68830;47.566;19.012;2023-04-08T06:30:08;100264.78;;;6.02;76.80
79362;BME280;68830;47.566;19.012;2023-04-08T06:33:14;100270.88;;;6.03;76.18
79362;BME280;68830;47.566;19.012;2023-04-08T06:36:16;100218.44;;;5.64;76.14
79362;BME280;68830;47.566;19.012;2023-04-08T06:39:18;100250.94;;;5.87;75.96
79362;BME280;68830;47.566;19.012;2023-04-08T06:42:22;100209.59;;;5.65;76.34
79362;BME280;68830;47.566;19.012;2023-04-08T06:45:24;100238.75;;;5.86;75.75
79362;BME280;68830;47.566;19.012;2023-04-08T06:48:28;100258.47;;;6.05;75.85
79362;BME280;68830;47.566;19.012;2023-04-08T06:51:31;100277.66;;;6.18;75.24
79362;BME280;68830;47.566;19.012;2023-04-08T06:54:33;100228.13;;;5.88;75.71
79362;BME280;68830;47.566;19.012;2023-04-08T06:57:36;100234.34;;;5.87;75.17
79362;BME280;68830;47.566;19.012;2023-04-08T07:00:38;100286.16;;;6.21;75.12
79362;BME280;68830;47.566;19.012;2023-04-08T07:03:42;100248.00;;;5.92;74.97
79362;BME280;68830;47.566;19.012;2023-04-08T07:06:44;100232.44;;;5.89;75.40
79362;BME280;68830;47.566;19.012;2023-04-08T07:09:48;100305.28;;;6.23;75.88
79362;BME280;68830;47.566;19.012;2023-04-08T07:12:50;100269.44;;;5.98;75.04
79362;BME280;68830;47.566;19.012;2023-04-08T07:15:53;100261.44;;;6.00;75.02
79362;BME280;68830;47.566;19.012;2023-04-08T07:18:59;100232.34;;;5.90;75.11
79362;BME280;68830;47.566;19.012;2023-04-08T07:22:01;100286.03;;;6.23;74.88
79362;BME280;68830;47.566;19.012;2023-04-08T07:25:04;100290.47;;;6.22;74.79
79362;BME280;68830;47.566;19.012;2023-04-08T07:28:06;100310.59;;;6.35;74.50
79362;BME280;68830;47.566;19.012;2023-04-08T07:31:12;100280.53;;;6.15;74.07
79362;BME280;68830;47.566;19.012;2023-04-08T07:34:16;100302.34;;;6.28;75.57
79362;BME280;68830;47.566;19.012;2023-04-08T07:37:18;100281.78;;;6.09;76.01
79362;BME280;68830;47.566;19.012;2023-04-08T07:40:21;100263.53;;;5.95;75.22
79362;BME280;68830;47.566;19.012;2023-04-08T07:43:23;100275.19;;;6.04;74.78
79362;BME280;68830;47.566;19.012;2023-04-08T07:46:25;100304.69;;;6.20;75.18
79362;BME280;68830;47.566;19.012;2023-04-08T07:49:28;100307.47;;;6.29;74.81
79362;BME280;68830;47.566;19.012;2023-04-08T07:52:30;100314.00;;;6.24;74.58
79362;BME280;68830;47.566;19.012;2023-04-08T07:55:33;100305.84;;;6.16;74.00
79362;BME280;68830;47.566;19.012;2023-04-08T07:58:35;100292.88;;;6.02;74.37
79362;BME280;68830;47.566;19.012;2023-04-08T08:01:37;100290.66;;;5.95;73.88
79362;BME280;68830;47.566;19.012;2023-04-08T08:04:44;100292.50;;;4.03;85.42
79362;BME280;68830;47.566;19.012;2023-04-08T08:07:46;100298.91;;;3.84;86.30
79362;BME280;68830;47.566;19.012;2023-04-08T08:10:48;100270.41;;;3.66;86.09
79362;BME280;68830;47.566;19.012;2023-04-08T08:13:50;100236.81;;;3.31;86.16
79362;BME280;68830;47.566;19.012;2023-04-08T08:16:52;100263.16;;;3.56;87.29
79362;BME280;68830;47.566;19.012;2023-04-08T08:19:59;100228.75;;;3.34;87.76
79362;BME280;68830;47.566;19.012;2023-04-08T08:23:01;100251.22;;;3.38;87.43
79362;BME280;68830;47.566;19.012;2023-04-08T08:26:05;100240.78;;;3.51;87.45
79362;BME280;68830;47.566;19.012;2023-04-08T08:29:07;100270.25;;;3.69;86.87
79362;BME280;68830;47.566;19.012;2023-04-08T08:32:09;100338.72;;;4.04;87.37
79362;BME280;68830;47.566;19.012;2023-04-08T08:35:13;100374.59;;;4.97;83.69
79362;BME280;68830;47.566;19.012;2023-04-08T08:38:15;100351.91;;;5.47;80.76
79362;BME280;68830;47.566;19.012;2023-04-08T08:41:18;100319.09;;;5.65;78.89
79362;BME280;68830;47.566;19.012;2023-04-08T08:44:20;100329.91;;;5.86;77.21
79362;BME280;68830;47.566;19.012;2023-04-08T08:47:22;100338.06;;;6.07;78.14
79362;BME280;68830;47.566;19.012;2023-04-08T08:50:26;100309.47;;;6.02;75.62
79362;BME280;68830;47.566;19.012;2023-04-08T08:53:29;100329.19;;;6.20;76.07
79362;BME280;68830;47.566;19.012;2023-04-08T08:56:35;100316.75;;;6.22;75.63
79362;BME280;68830;47.566;19.012;2023-04-08T09:04:39;100373.69;;;5.23;81.96
79362;BME280;68830;47.566;19.012;2023-04-08T09:07:53;100377.25;;;4.70;84.13
79362;BME280;68830;47.566;19.012;2023-04-08T09:11:21;100384.47;;;4.66;84.86
79362;BME280;68830;47.566;19.012;2023-04-08T09:14:32;100343.16;;;4.30;84.21
79362;BME280;68830;47.566;19.012;2023-04-08T09:17:35;100386.97;;;4.55;84.54
79362;BME280;68830;47.566;19.012;2023-04-08T09:20:51;100338.19;;;4.26;85.37
79362;BME280;68830;47.566;19.012;2023-04-08T09:24:28;100315.38;;;4.13;86.98
79362;BME280;68830;47.566;19.012;2023-04-08T09:27:42;100264.91;;;3.70;84.90
79362;BME280;68830;47.566;19.012;2023-04-08T09:30:44;100328.97;;;4.06;85.43
79362;BME280;68830;47.566;19.012;2023-04-08T09:38:18;100309.19;;;3.87;85.39
79362;BME280;68830;47.566;19.012;2023-04-08T09:41:22;100280.22;;;3.76;86.19
79362;BME280;68830;47.566;19.012;2023-04-08T09:44:29;100349.22;;;4.31;86.11
79362;BME280;68830;47.566;19.012;2023-04-08T09:47:43;100321.22;;;4.04;86.73
79362;BME280;68830;47.566;19.012;2023-04-08T09:50:49;100378.28;;;4.40;85.46
79362;BME280;68830;47.566;19.012;2023-04-08T09:53:58;100386.53;;;4.48;84.81
79362;BME280;68830;47.566;19.012;2023-04-08T09:57:05;100404.25;;;4.58;84.95
79362;BME280;68830;47.566;19.012;2023-04-08T10:00:13;100347.44;;;4.31;85.03
79362;BME280;68830;47.566;19.012;2023-04-08T10:03:25;100368.53;;;4.30;83.54
79362;BME280;68830;47.566;19.012;2023-04-08T10:06:28;100334.59;;;4.14;85.04
79362;BME280;68830;47.566;19.012;2023-04-08T10:09:32;100346.78;;;4.28;84.30
79362;BME280;68830;47.566;19.012;2023-04-08T10:12:36;100317.66;;;4.32;83.84
79362;BME280;68830;47.566;19.012;2023-04-08T10:15:38;100334.97;;;4.35;83.07
79362;BME280;68830;47.566;19.012;2023-04-08T10:18:45;100386.50;;;4.75;82.79
79362;BME280;68830;47.566;19.012;2023-04-08T10:21:52;100418.44;;;4.82;82.23
79362;BME280;68830;47.566;19.012;2023-04-08T10:25:28;100339.06;;;4.39;82.47
79362;BME280;68830;47.566;19.012;2023-04-08T10:28:35;100398.06;;;4.86;82.04
79362;BME280;68830;47.566;19.012;2023-04-08T10:31:39;100389.50;;;4.96;81.48
79362;BME280;68830;47.566;19.012;2023-04-08T10:34:50;100330.34;;;4.65;82.35
79362;BME280;68830;47.566;19.012;2023-04-08T10:37:56;100406.13;;;5.22;83.02
79362;BME280;68830;47.566;19.012;2023-04-08T10:40:59;100399.81;;;5.25;82.70
79362;BME280;68830;47.566;19.012;2023-04-08T10:44:14;100345.19;;;5.04;82.64
79362;BME280;68830;47.566;19.012;2023-04-08T10:47:24;100389.53;;;5.34;81.14
79362;BME280;68830;47.566;19.012;2023-04-08T10:50:29;100336.38;;;4.93;82.45
79362;BME280;68830;47.566;19.012;2023-04-08T10:53:39;100396.66;;;5.20;82.11
79362;BME280;68830;47.566;19.012;2023-04-08T10:56:46;100340.97;;;4.76;83.33
79362;BME280;68830;47.566;19.012;2023-04-08T10:59:52;100414.19;;;5.19;82.99
79362;BME280;68830;47.566;19.012;2023-04-08T11:02:54;100347.78;;;4.79;82.61
79362;BME280;68830;47.566;19.012;2023-04-08T11:06:03;100421.78;;;5.24;81.63
79362;BME280;68830;47.566;19.012;2023-04-08T11:09:05;100358.22;;;4.93;81.98
79362;BME280;68830;47.566;19.012;2023-04-08T11:12:07;100385.44;;;5.43;82.31
79362;BME280;68830;47.566;19.012;2023-04-08T11:15:12;100328.19;;;5.10;81.13
79362;BME280;68830;47.566;19.012;2023-04-08T11:18:14;100397.75;;;5.55;81.69
79362;BME280;68830;47.566;19.012;2023-04-08T11:21:19;100405.41;;;5.71;82.05
79362;BME280;68830;47.566;19.012;2023-04-08T11:24:23;100403.91;;;5.80;81.57
79362;BME280;68830;47.566;19.012;2023-04-08T11:27:25;100341.22;;;5.37;81.46
79362;BME280;68830;47.566;19.012;2023-04-08T11:30:29;100369.06;;;5.39;78.02
79362;BME280;68830;47.566;19.012;2023-04-08T11:33:32;100328.72;;;5.53;80.47
79362;BME280;68830;47.566;19.012;2023-04-08T11:36:35;100396.66;;;5.83;77.83
79362;BME280;68830;47.566;19.012;2023-04-08T11:39:40;100403.81;;;5.94;78.38
79362;BME280;68830;47.566;19.012;2023-04-08T11:42:43;100417.50;;;5.99;77.70
79362;BME280;68830;47.566;19.012;2023-04-08T11:45:49;100338.78;;;5.47;77.89
79362;BME280;68830;47.566;19.012;2023-04-08T11:48:59;100385.41;;;5.94;78.37
79362;BME280;68830;47.566;19.012;2023-04-08T11:52:01;100356.94;;;5.75;78.48
79362;BME280;68830;47.566;19.012;2023-04-08T11:55:04;100351.28;;;5.68;77.61
79362;BME280;68830;47.566;19.012;2023-04-08T11:58:06;100349.06;;;5.50;77.31
79362;BME280;68830;47.566;19.012;2023-04-08T12:01:13;100398.34;;;5.84;78.85
79362;BME280;68830;47.566;19.012;2023-04-08T12:04:15;100344.97;;;5.58;78.08
79362;BME280;68830;47.566;19.012;2023-04-08T12:07:17;100387.41;;;5.65;78.64
79362;BME280;68830;47.566;19.012;2023-04-08T12:10:19;100329.56;;;5.28;80.41
79362;BME280;68830;47.566;19.012;2023-04-08T12:13:21;100397.28;;;5.74;80.12
79362;BME280;68830;47.566;19.012;2023-04-08T12:16:25;100328.81;;;5.39;79.94
79362;BME280;68830;47.566;19.012;2023-04-08T12:19:27;100351.91;;;5.59;79.62
79362;BME280;68830;47.566;19.012;2023-04-08T12:22:31;100395.72;;;5.84;77.48
79362;BME280;68830;47.566;19.012;2023-04-08T12:25:33;100391.94;;;5.76;79.50
79362;BME280;68830;47.566;19.012;2023-04-08T12:28:36;100354.75;;;5.44;79.58
79362;BME280;68830;47.566;19.012;2023-04-08T12:31:40;100391.94;;;5.63;80.02
79362;BME280;68830;47.566;19.012;2023-04-08T12:34:42;100332.41;;;5.25;79.23
79362;BME280;68830;47.566;19.012;2023-04-08T12:37:44;100342.69;;;5.41;81.66
79362;BME280;68830;47.566;19.012;2023-04-08T12:40:46;100375.31;;;5.75;81.11
79362;BME280;68830;47.566;19.012;2023-04-08T12:43:50;100385.09;;;5.86;80.59
79362;BME280;68830;47.566;19.012;2023-04-08T12:46:54;100400.63;;;6.14;80.77
79362;BME280;68830;47.566;19.012;2023-04-08T12:49:56;100388.16;;;5.92;75.65
79362;BME280;68830;47.566;19.012;2023-04-08T12:52:58;100397.88;;;6.16;78.91
79362;BME280;68830;47.566;19.012;2023-04-08T12:56:00;100396.47;;;6.23;78.77
79362;BME280;68830;47.566;19.012;2023-04-08T12:59:04;100348.50;;;5.95;77.70
79362;BME280;68830;47.566;19.012;2023-04-08T13:02:08;100391.81;;;6.39;78.03
79362;BME280;68830;47.566;19.012;2023-04-08T13:05:14;100340.84;;;6.29;79.33
79362;BME280;68830;47.566;19.012;2023-04-08T13:08:18;100379.06;;;6.46;77.78
79362;BME280;68830;47.566;19.012;2023-04-08T13:11:20;100333.84;;;6.17;77.25
79362;BME280;68830;47.566;19.012;2023-04-08T13:14:23;100373.06;;;6.44;77.13
79362;BME280;68830;47.566;19.012;2023-04-08T13:17:26;100348.94;;;6.50;77.82
79362;BME280;68830;47.566;19.012;2023-04-08T13:20:29;100335.13;;;6.35;78.52
79362;BME280;68830;47.566;19.012;2023-04-08T13:23:31;100367.41;;;6.61;78.37
79362;BME280;68830;47.566;19.012;2023-04-08T13:26:33;100367.91;;;6.42;75.06
79362;BME280;68830;47.566;19.012;2023-04-08T13:29:35;100338.94;;;6.31;78.74
79362;BME280;68830;47.566;19.012;2023-04-08T13:32:41;100375.72;;;6.44;76.04
79362;BME280;68830;47.566;19.012;2023-04-08T13:35:43;100325.91;;;6.29;77.27
79362;BME280;68830;47.566;19.012;2023-04-08T13:38:46;100331.75;;;6.33;74.74
79362;BME280;68830;47.566;19.012;2023-04-08T13:41:51;100360.47;;;6.60;74.62
79362;BME280;68830;47.566;19.012;2023-04-08T13:45:05;100381.00;;;6.79;76.70
79362;BME280;68830;47.566;19.012;2023-04-08T13:48:34;100298.19;;;6.37;76.71
79362;BME280;68830;47.566;19.012;2023-04-08T13:51:58;100386.63;;;6.74;75.61
79362;BME280;68830;47.566;19.012;2023-04-08T13:55:03;100349.06;;;6.48;74.01
79362;BME280;68830;47.566;19.012;2023-04-08T13:58:06;100384.00;;;6.85;75.39
79362;BME280;68830;47.566;19.012;2023-04-08T14:01:23;100350.03;;;6.58;75.95
79362;BME280;68830;47.566;19.012;2023-04-08T14:04:27;100353.97;;;6.53;72.64
79362;BME280;68830;47.566;19.012;2023-04-08T14:07:29;100350.97;;;6.46;73.10
79362;BME280;68830;47.566;19.012;2023-04-08T14:10:31;100341.03;;;6.50;73.51
79362;BME280;68830;47.566;19.012;2023-04-08T14:13:37;100314.00;;;6.24;74.85
79362;BME280;68830;47.566;19.012;2023-04-08T14:16:42;100393.09;;;6.57;74.21
79362;BME280;68830;47.566;19.012;2023-04-08T14:19:48;100343.66;;;6.26;74.53
79362;BME280;68830;47.566;19.012;2023-04-08T14:22:50;100313.22;;;6.11;72.88
79362;BME280;68830;47.566;19.012;2023-04-08T14:25:52;100335.56;;;6.29;75.97
79362;BME280;68830;47.566;19.012;2023-04-08T14:28:55;100338.97;;;6.18;75.81
79362;BME280;68830;47.566;19.012;2023-04-08T14:31:57;100318.44;;;5.99;77.26
79362;BME280;68830;47.566;19.012;2023-04-08T14:35:01;100360.19;;;6.28;77.91
79362;BME280;68830;47.566;19.012;2023-04-08T14:38:03;100365.78;;;6.47;77.14
79362;BME280;68830;47.566;19.012;2023-04-08T14:41:12;100353.28;;;6.38;77.46
79362;BME280;68830;47.566;19.012;2023-04-08T14:44:28;100371.09;;;6.35;74.05
79362;BME280;68830;47.566;19.012;2023-04-08T14:47:36;100391.28;;;6.58;76.11
79362;BME280;68830;47.566;19.012;2023-04-08T14:50:43;100388.91;;;6.55;74.97
79362;BME280;68830;47.566;19.012;2023-04-08T14:53:46;100395.06;;;6.67;76.31
79362;BME280;68830;47.566;19.012;2023-04-08T14:56:51;100365.19;;;6.44;75.92
79362;BME280;68830;47.566;19.012;2023-04-08T15:00:03;100346.25;;;6.39;73.97
79362;BME280;68830;47.566;19.012;2023-04-08T15:03:05;100389.06;;;6.65;73.32
79362;BME280;68830;47.566;19.012;2023-04-08T15:13:38;100338.38;;;6.15;73.86
79362;BME280;68830;47.566;19.012;2023-04-08T15:16:43;100351.81;;;6.10;74.86
79362;BME280;68830;47.566;19.012;2023-04-08T15:19:51;100370.13;;;6.12;76.20
79362;BME280;68830;47.566;19.012;2023-04-08T15:23:13;100396.25;;;6.26;78.43
79362;BME280;68830;47.566;19.012;2023-04-08T15:27:06;100386.50;;;6.28;80.10
79362;BME280;68830;47.566;19.012;2023-04-08T15:30:11;100368.53;;;6.09;80.55
79362;BME280;68830;47.566;19.012;2023-04-08T15:33:13;100334.75;;;5.66;77.96
79362;BME280;68830;47.566;19.012;2023-04-08T15:36:15;100373.63;;;5.87;78.25
79362;BME280;68830;47.566;19.012;2023-04-08T15:39:21;100400.63;;;5.89;78.14
79362;BME280;68830;47.566;19.012;2023-04-08T15:42:24;100324.94;;;5.45;79.85
79362;BME280;68830;47.566;19.012;2023-04-08T15:45:26;100347.50;;;5.47;79.35
79362;BME280;68830;47.566;19.012;2023-04-08T15:48:35;100343.19;;;5.33;79.75
79362;BME280;68830;47.566;19.012;2023-04-08T15:51:42;100395.63;;;5.60;81.09
79362;BME280;68830;47.566;19.012;2023-04-08T15:54:45;100368.41;;;5.74;85.36
79362;BME280;68830;47.566;19.012;2023-04-08T15:57:49;100353.69;;;5.33;79.46
79362;BME280;68830;47.566;19.012;2023-04-08T16:00:51;100379.84;;;5.35;83.09
79362;BME280;68830;47.566;19.012;2023-04-08T16:03:55;100435.47;;;5.67;82.44
79362;BME280;68830;47.566;19.012;2023-04-08T16:06:57;100358.66;;;5.25;82.60
79362;BME280;68830;47.566;19.012;2023-04-08T16:09:59;100363.06;;;5.12;81.91
79362;BME280;68830;47.566;19.012;2023-04-08T16:13:05;100356.31;;;4.95;82.45
79362;BME280;68830;47.566;19.012;2023-04-08T16:16:08;100413.25;;;5.20;84.01
79362;BME280;68830;47.566;19.012;2023-04-08T16:19:10;100355.34;;;4.84;82.81
79362;BME280;68830;47.566;19.012;2023-04-08T16:22:13;100363.66;;;4.90;83.23